sensor_id;sensor_type;location;lat;lon;timestamp;pressure;altitude;pressure_sealevel;temperature
68446;BMP280;35789;48.414;12.768;2022-11-14T00:00:00;97150.0;;;
68446;BMP280;35789;48.414;12.768;2022-11-14T00:05:00;97140.0;;;
68446;BMP280;35789;48.414;12.768;2022-11-14T00:10:00;97140.0;;;
68446;BMP280;35789;48.414;12.768;2022-11-14T00:15:00;97130.0;;;
68446;BMP280;35789;48.414;12.768;2022-11-14T00:20:00;97130.0;;;
68446;BMP280;35789;48.414;12.768;2022-11-14T00:25:00;97130.0;;;
68446;BMP280;35789;48.414;12.768;2022-11-14T00:30:00;97110.0;;;
68446;BMP280;35789;48.414;12.768;2022-11-14T00:35:00;97110.0;;;
68446;BMP280;35789;48.414;12.768;2022-11-14T00:40:00;97110.0;;;
68446;BMP280;35789;48.414;12.768;2022-11-14T00:45:00;97110.0;;;
68446;BMP280;35789;48.414;12.768;2022-11-14T00:50:00;97120.0;;;
68446;BMP280;35789;48.414;12.768;2022-11-14T00:55:00;97110.0;;;
68446;BMP280;35789;48.414;12.768;2022-11-14T01:00:00;97110.0;;;
68446;BMP280;35789;48.414;12.768;2022-11-14T01:05:00;97110.0;;;
68446;BMP280;35789;48.414;12.768;2022-11-14T01:10:00;97100.0;;;
68446;BMP280;35789;48.414;12.768;2022-11-14T01:15:00;97100.0;;;
68446;BMP280;35789;48.414;12.768;2022-11-14T01:20:00;97100.0;;;
68446;BMP280;35789;48.414;12.768;2022-11-14T01:25:00;97090.0;;;
68446;BMP280;35789;48.414;12.768;2022-11-14T01:30:00;97090.0;;;
68446;BMP280;35789;48.414;12.768;2022-11-14T01:35:00;97100.0;;;
68446;BMP280;35789;48.414;12.768;2022-11-14T01:40:00;97090.0;;;
68446;BMP280;35789;48.414;12.768;2022-11-14T01:45:00;97100.0;;;
68446;BMP280;35789;48.414;12.768;2022-11-14T01:50:05;97100.0;;;
68446;BMP280;35789;48.414;12.768;2022-11-14T01:55:06;97110.0;;;
68446;BMP280;35789;48.414;12.768;2022-11-14T02:00:06;97110.0;;;
68446;BMP280;35789;48.414;12.768;2022-11-14T02:05:08;97100.0;;;
68446;BMP280;35789;48.414;12.768;2022-11-14T02:10:05;97100.0;;;
68446;BMP280;35789;48.414;12.768;2022-11-14T02:15:01;97080.0;;;
68446;BMP280;35789;48.414;12.768;2022-11-14T02:20:13;97080.0;;;
68446;BMP280;35789;48.414;12.768;2022-11-14T02:25:00;97070.0;;;
68446;BMP280;35789;48.414;12.768;2022-11-14T02:30:05;97070.0;;;
68446;BMP280;35789;48.414;12.768;2022-11-14T02:35:00;97080.0;;;
68446;BMP280;35789;48.414;12.768;2022-11-14T02:40:00;97070.0;;;
68446;BMP280;35789;48.414;12.768;2022-11-14T02:45:00;97040.0;;;
68446;BMP280;35789;48.414;12.768;2022-11-14T02:50:00;97040.0;;;
68446;BMP280;35789;48.414;12.768;2022-11-14T02:55:00;97040.0;;;
68446;BMP280;35789;48.414;12.768;2022-11-14T03:00:00;97040.0;;;
68446;BMP280;35789;48.414;12.768;2022-11-14T03:05:00;97050.0;;;
68446;BMP280;35789;48.414;12.768;2022-11-14T03:10:00;97030.0;;;
68446;BMP280;35789;48.414;12.768;2022-11-14T03:15:00;97030.0;;;
68446;BMP280;35789;48.414;12.768;2022-11-14T03:20:00;97040.0;;;
68446;BMP280;35789;48.414;12.768;2022-11-14T03:25:00;97030.0;;;
68446;BMP280;35789;48.414;12.768;2022-11-14T03:30:00;97040.0;;;
68446;BMP280;35789;48.414;12.768;2022-11-14T03:35:00;97040.0;;;
68446;BMP280;35789;48.414;12.768;2022-11-14T03:40:00;97040.0;;;
68446;BMP280;35789;48.414;12.768;2022-11-14T03:45:00;97040.0;;;
68446;BMP280;35789;48.414;12.768;2022-11-14T03:50:00;97050.0;;;
68446;BMP280;35789;48.414;12.768;2022-11-14T03:55:00;97060.0;;;
68446;BMP280;35789;48.414;12.768;2022-11-14T04:00:00;97050.0;;;
68446;BMP280;35789;48.414;12.768;2022-11-14T04:05:00;97050.0;;;
68446;BMP280;35789;48.414;12.768;2022-11-14T04:10:00;97040.0;;;
68446;BMP280;35789;48.414;12.768;2022-11-14T04:15:00;97050.0;;;
68446;BMP280;35789;48.414;12.768;2022-11-14T04:20:00;97060.0;;;
68446;BMP280;35789;48.414;12.768;2022-11-14T04:25:00;97070.0;;;
68446;BMP280;35789;48.414;12.768;2022-11-14T04:30:00;97070.0;;;
68446;BMP280;35789;48.414;12.768;2022-11-14T04:35:00;97060.0;;;
68446;BMP280;35789;48.414;12.768;2022-11-14T04:40:00;97050.0;;;
68446;BMP280;35789;48.414;12.768;2022-11-14T04:45:00;97060.0;;;
68446;BMP280;35789;48.414;12.768;2022-11-14T04:50:00;97050.0;;;
68446;BMP280;35789;48.414;12.768;2022-11-14T04:55:00;97050.0;;;
68446;BMP280;35789;48.414;12.768;2022-11-14T05:00:00;97050.0;;;
68446;BMP280;35789;48.414;12.768;2022-11-14T05:05:00;97070.0;;;
68446;BMP280;35789;48.414;12.768;2022-11-14T05:10:00;97050.0;;;
68446;BMP280;35789;48.414;12.768;2022-11-14T05:15:00;97050.0;;;
68446;BMP280;35789;48.414;12.768;2022-11-14T05:20:00;97060.0;;;
68446;BMP280;35789;48.414;12.768;2022-11-14T05:25:00;97060.0;;;
68446;BMP280;35789;48.414;12.768;2022-11-14T05:30:00;97060.0;;;
68446;BMP280;35789;48.414;12.768;2022-11-14T05:35:00;97070.0;;;
68446;BMP280;35789;48.414;12.768;2022-11-14T05:40:00;97080.0;;;
68446;BMP280;35789;48.414;12.768;2022-11-14T05:45:00;97100.0;;;
68446;BMP280;35789;48.414;12.768;2022-11-14T05:50:00;97100.0;;;
68446;BMP280;35789;48.414;12.768;2022-11-14T05:55:00;97100.0;;;
68446;BMP280;35789;48.414;12.768;2022-11-14T06:00:00;97100.0;;;
68446;BMP280;35789;48.414;12.768;2022-11-14T06:05:00;97100.0;;;
68446;BMP280;35789;48.414;12.768;2022-11-14T06:10:00;97110.0;;;
68446;BMP280;35789;48.414;12.768;2022-11-14T06:15:00;97110.0;;;
68446;BMP280;35789;48.414;12.768;2022-11-14T06:20:00;97100.0;;;
68446;BMP280;35789;48.414;12.768;2022-11-14T06:25:00;97100.0;;;
68446;BMP280;35789;48.414;12.768;2022-11-14T06:30:00;97110.0;;;
68446;BMP280;35789;48.414;12.768;2022-11-14T06:35:00;97120.0;;;
68446;BMP280;35789;48.414;12.768;2022-11-14T06:40:00;97110.0;;;
68446;BMP280;35789;48.414;12.768;2022-11-14T06:45:00;97110.0;;;
68446;BMP280;35789;48.414;12.768;2022-11-14T06:50:00;97140.0;;;
68446;BMP280;35789;48.414;12.768;2022-11-14T06:55:00;97140.0;;;
68446;BMP280;35789;48.414;12.768;2022-11-14T07:00:00;97140.0;;;
68446;BMP280;35789;48.414;12.768;2022-11-14T07:05:00;97130.0;;;
68446;BMP280;35789;48.414;12.768;2022-11-14T07:10:00;97130.0;;;
68446;BMP280;35789;48.414;12.768;2022-11-14T07:15:00;97120.0;;;
68446;BMP280;35789;48.414;12.768;2022-11-14T07:20:01;97120.0;;;
68446;BMP280;35789;48.414;12.768;2022-11-14T07:25:00;97110.0;;;
68446;BMP280;35789;48.414;12.768;2022-11-14T07:30:00;97110.0;;;
68446;BMP280;35789;48.414;12.768;2022-11-14T07:35:00;97120.0;;;
68446;BMP280;35789;48.414;12.768;2022-11-14T07:40:00;97120.0;;;
68446;BMP280;35789;48.414;12.768;2022-11-14T07:45:00;97120.0;;;
68446;BMP280;35789;48.414;12.768;2022-11-14T07:50:00;97120.0;;;
68446;BMP280;35789;48.414;12.768;2022-11-14T07:55:00;97110.0;;;
68446;BMP280;35789;48.414;12.768;2022-11-14T08:00:00;97110.0;;;
68446;BMP280;35789;48.414;12.768;2022-11-14T08:05:00;97100.0;;;
68446;BMP280;35789;48.414;12.768;2022-11-14T08:10:00;97090.0;;;
68446;BMP280;35789;48.414;12.768;2022-11-14T08:15:00;97100.0;;;
68446;BMP280;35789;48.414;12.768;2022-11-14T08:20:00;97090.0;;;
68446;BMP280;35789;48.414;12.768;2022-11-14T08:25:00;97090.0;;;
68446;BMP280;35789;48.414;12.768;2022-11-14T08:30:00;97080.0;;;
68446;BMP280;35789;48.414;12.768;2022-11-14T08:35:00;97080.0;;;
68446;BMP280;35789;48.414;12.768;2022-11-14T08:40:00;97080.0;;;
68446;BMP280;35789;48.414;12.768;2022-11-14T08:45:00;97070.0;;;
68446;BMP280;35789;48.414;12.768;2022-11-14T08:50:00;97070.0;;;
68446;BMP280;35789;48.414;12.768;2022-11-14T08:55:00;97060.0;;;
68446;BMP280;35789;48.414;12.768;2022-11-14T09:00:00;97060.0;;;
68446;BMP280;35789;48.414;12.768;2022-11-14T09:05:00;97050.0;;;
68446;BMP280;35789;48.414;12.768;2022-11-14T09:10:00;97050.0;;;
68446;BMP280;35789;48.414;12.768;2022-11-14T09:15:00;97050.0;;;
68446;BMP280;35789;48.414;12.768;2022-11-14T09:20:00;97040.0;;;
68446;BMP280;35789;48.414;12.768;2022-11-14T09:25:00;97050.0;;;
68446;BMP280;35789;48.414;12.768;2022-11-14T09:30:00;97050.0;;;
68446;BMP280;35789;48.414;12.768;2022-11-14T09:35:00;97050.0;;;
68446;BMP280;35789;48.414;12.768;2022-11-14T09:40:00;97050.0;;;
68446;BMP280;35789;48.414;12.768;2022-11-14T09:45:03;97040.0;;;
68446;BMP280;35789;48.414;12.768;2022-11-14T09:50:10;97040.0;;;
68446;BMP280;35789;48.414;12.768;2022-11-14T09:55:10;97030.0;;;
68446;BMP280;35789;48.414;12.768;2022-11-14T10:00:01;97030.0;;;
68446;BMP280;35789;48.414;12.768;2022-11-14T10:05:21;97040.0;;;
68446;BMP280;35789;48.414;12.768;2022-11-14T10:10:15;97030.0;;;
68446;BMP280;35789;48.414;12.768;2022-11-14T10:15:15;97030.0;;;
68446;BMP280;35789;48.414;12.768;2022-11-14T10:20:12;97020.0;;;
68446;BMP280;35789;48.414;12.768;2022-11-14T10:25:19;97020.0;;;
68446;BMP280;35789;48.414;12.768;2022-11-14T10:30:07;97020.0;;;
68446;BMP280;35789;48.414;12.768;2022-11-14T10:35:09;97020.0;;;
68446;BMP280;35789;48.414;12.768;2022-11-14T10:40:15;97010.0;;;
68446;BMP280;35789;48.414;12.768;2022-11-14T10:45:06;97020.0;;;
68446;BMP280;35789;48.414;12.768;2022-11-14T10:50:14;97020.0;;;
68446;BMP280;35789;48.414;12.768;2022-11-14T10:55:06;97010.0;;;
68446;BMP280;35789;48.414;12.768;2022-11-14T11:00:00;97010.0;;;
68446;BMP280;35789;48.414;12.768;2022-11-14T11:05:14;97000.0;;;
68446;BMP280;35789;48.414;12.768;2022-11-14T11:10:02;96990.0;;;
68446;BMP280;35789;48.414;12.768;2022-11-14T11:15:14;96990.0;;;
68446;BMP280;35789;48.414;12.768;2022-11-14T11:20:25;96970.0;;;
68446;BMP280;35789;48.414;12.768;2022-11-14T11:25:00;96960.0;;;
68446;BMP280;35789;48.414;12.768;2022-11-14T11:30:17;96960.0;;;
68446;BMP280;35789;48.414;12.768;2022-11-14T11:35:08;96960.0;;;
68446;BMP280;35789;48.414;12.768;2022-11-14T11:40:05;96950.0;;;
68446;BMP280;35789;48.414;12.768;2022-11-14T11:45:03;96940.0;;;
68446;BMP280;35789;48.414;12.768;2022-11-14T11:50:01;96930.0;;;
68446;BMP280;35789;48.414;12.768;2022-11-14T11:55:13;96920.0;;;
68446;BMP280;35789;48.414;12.768;2022-11-14T12:00:06;96920.0;;;
68446;BMP280;35789;48.414;12.768;2022-11-14T12:05:00;96930.0;;;
68446;BMP280;35789;48.414;12.768;2022-11-14T12:10:12;96950.0;;;
68446;BMP280;35789;48.414;12.768;2022-11-14T12:15:12;96950.0;;;
68446;BMP280;35789;48.414;12.768;2022-11-14T12:25:22;96970.0;;;
68446;BMP280;35789;48.414;12.768;2022-11-14T12:30:12;96970.0;;;
68446;BMP280;35789;48.414;12.768;2022-11-14T12:35:05;96970.0;;;
68446;BMP280;35789;48.414;12.768;2022-11-14T12:40:04;96970.0;;;
68446;BMP280;35789;48.414;12.768;2022-11-14T12:45:00;96970.0;;;
68446;BMP280;35789;48.414;12.768;2022-11-14T12:55:00;96970.0;;;
68446;BMP280;35789;48.414;12.768;2022-11-14T13:00:03;96960.0;;;
68446;BMP280;35789;48.414;12.768;2022-11-14T13:05:21;96960.0;;;
68446;BMP280;35789;48.414;12.768;2022-11-14T13:10:13;96970.0;;;
68446;BMP280;35789;48.414;12.768;2022-11-14T13:15:24;96970.0;;;
68446;BMP280;35789;48.414;12.768;2022-11-14T13:20:02;96970.0;;;
68446;BMP280;35789;48.414;12.768;2022-11-14T13:25:20;96980.0;;;
68446;BMP280;35789;48.414;12.768;2022-11-14T13:30:01;96980.0;;;
68446;BMP280;35789;48.414;12.768;2022-11-14T13:35:03;96980.0;;;
68446;BMP280;35789;48.414;12.768;2022-11-14T13:40:09;96990.0;;;
68446;BMP280;35789;48.414;12.768;2022-11-14T13:50:05;97000.0;;;
68446;BMP280;35789;48.414;12.768;2022-11-14T13:55:01;97000.0;;;
68446;BMP280;35789;48.414;12.768;2022-11-14T14:00:08;97010.0;;;
68446;BMP280;35789;48.414;12.768;2022-11-14T14:05:12;97020.0;;;
68446;BMP280;35789;48.414;12.768;2022-11-14T14:10:11;97020.0;;;
68446;BMP280;35789;48.414;12.768;2022-11-14T14:15:13;97030.0;;;
68446;BMP280;35789;48.414;12.768;2022-11-14T14:20:15;97040.0;;;
68446;BMP280;35789;48.414;12.768;2022-11-14T14:25:12;97040.0;;;
68446;BMP280;35789;48.414;12.768;2022-11-14T14:30:08;97050.0;;;
68446;BMP280;35789;48.414;12.768;2022-11-14T14:35:21;97050.0;;;
68446;BMP280;35789;48.414;12.768;2022-11-14T14:40:03;97060.0;;;
68446;BMP280;35789;48.414;12.768;2022-11-14T14:45:02;97060.0;;;
68446;BMP280;35789;48.414;12.768;2022-11-14T14:50:03;97050.0;;;
68446;BMP280;35789;48.414;12.768;2022-11-14T14:55:00;97050.0;;;
68446;BMP280;35789;48.414;12.768;2022-11-14T15:00:04;97060.0;;;
68446;BMP280;35789;48.414;12.768;2022-11-14T15:05:01;97060.0;;;
68446;BMP280;35789;48.414;12.768;2022-11-14T15:10:01;97070.0;;;
68446;BMP280;35789;48.414;12.768;2022-11-14T15:15:01;97060.0;;;
68446;BMP280;35789;48.414;12.768;2022-11-14T15:20:00;97070.0;;;
68446;BMP280;35789;48.414;12.768;2022-11-14T15:25:04;97070.0;;;
68446;BMP280;35789;48.414;12.768;2022-11-14T15:30:05;97080.0;;;
68446;BMP280;35789;48.414;12.768;2022-11-14T15:35:22;97080.0;;;
68446;BMP280;35789;48.414;12.768;2022-11-14T15:40:16;97080.0;;;
68446;BMP280;35789;48.414;12.768;2022-11-14T15:50:04;97080.0;;;
68446;BMP280;35789;48.414;12.768;2022-11-14T15:55:00;97080.0;;;
68446;BMP280;35789;48.414;12.768;2022-11-14T16:00:00;97080.0;;;
68446;BMP280;35789;48.414;12.768;2022-11-14T16:05:03;97090.0;;;
68446;BMP280;35789;48.414;12.768;2022-11-14T16:10:00;97090.0;;;
68446;BMP280;35789;48.414;12.768;2022-11-14T16:15:00;97090.0;;;
68446;BMP280;35789;48.414;12.768;2022-11-14T16:20:02;97080.0;;;
68446;BMP280;35789;48.414;12.768;2022-11-14T16:25:00;97080.0;;;
68446;BMP280;35789;48.414;12.768;2022-11-14T16:30:00;97090.0;;;
68446;BMP280;35789;48.414;12.768;2022-11-14T16:35:00;97090.0;;;
68446;BMP280;35789;48.414;12.768;2022-11-14T16:40:00;97090.0;;;
68446;BMP280;35789;48.414;12.768;2022-11-14T16:45:01;97090.0;;;
68446;BMP280;35789;48.414;12.768;2022-11-14T16:50:00;97090.0;;;
68446;BMP280;35789;48.414;12.768;2022-11-14T16:55:00;97090.0;;;
68446;BMP280;35789;48.414;12.768;2022-11-14T17:00:03;97100.0;;;
68446;BMP280;35789;48.414;12.768;2022-11-14T17:05:00;97090.0;;;
68446;BMP280;35789;48.414;12.768;2022-11-14T17:10:00;97090.0;;;
68446;BMP280;35789;48.414;12.768;2022-11-14T17:15:00;97100.0;;;
68446;BMP280;35789;48.414;12.768;2022-11-14T17:20:00;97100.0;;;
68446;BMP280;35789;48.414;12.768;2022-11-14T17:25:00;97100.0;;;
68446;BMP280;35789;48.414;12.768;2022-11-14T17:30:00;97100.0;;;
68446;BMP280;35789;48.414;12.768;2022-11-14T17:35:00;97100.0;;;
68446;BMP280;35789;48.414;12.768;2022-11-14T17:40:00;97100.0;;;
68446;BMP280;35789;48.414;12.768;2022-11-14T17:45:00;97100.0;;;
68446;BMP280;35789;48.414;12.768;2022-11-14T17:50:00;97100.0;;;
68446;BMP280;35789;48.414;12.768;2022-11-14T17:55:00;97100.0;;;
68446;BMP280;35789;48.414;12.768;2022-11-14T18:00:00;97100.0;;;
68446;BMP280;35789;48.414;12.768;2022-11-14T18:05:00;97100.0;;;
68446;BMP280;35789;48.414;12.768;2022-11-14T18:10:00;97110.0;;;
68446;BMP280;35789;48.414;12.768;2022-11-14T18:15:00;97110.0;;;
68446;BMP280;35789;48.414;12.768;2022-11-14T18:25:00;97120.0;;;
68446;BMP280;35789;48.414;12.768;2022-11-14T18:30:00;97120.0;;;
68446;BMP280;35789;48.414;12.768;2022-11-14T18:35:00;97120.0;;;
68446;BMP280;35789;48.414;12.768;2022-11-14T18:40:00;97120.0;;;
68446;BMP280;35789;48.414;12.768;2022-11-14T18:45:00;97130.0;;;
68446;BMP280;35789;48.414;12.768;2022-11-14T18:50:00;97130.0;;;
68446;BMP280;35789;48.414;12.768;2022-11-14T18:55:00;97130.0;;;
68446;BMP280;35789;48.414;12.768;2022-11-14T19:00:00;97130.0;;;
68446;BMP280;35789;48.414;12.768;2022-11-14T19:05:00;97130.0;;;
68446;BMP280;35789;48.414;12.768;2022-11-14T19:10:00;97130.0;;;
68446;BMP280;35789;48.414;12.768;2022-11-14T19:15:00;97130.0;;;
68446;BMP280;35789;48.414;12.768;2022-11-14T19:20:00;97130.0;;;
68446;BMP280;35789;48.414;12.768;2022-11-14T19:25:00;97140.0;;;
68446;BMP280;35789;48.414;12.768;2022-11-14T19:30:00;97140.0;;;
68446;BMP280;35789;48.414;12.768;2022-11-14T19:35:00;97150.0;;;
68446;BMP280;35789;48.414;12.768;2022-11-14T19:40:00;97140.0;;;
68446;BMP280;35789;48.414;12.768;2022-11-14T19:45:00;97140.0;;;
68446;BMP280;35789;48.414;12.768;2022-11-14T19:50:00;97140.0;;;
68446;BMP280;35789;48.414;12.768;2022-11-14T19:55:00;97140.0;;;
68446;BMP280;35789;48.414;12.768;2022-11-14T20:00:00;97140.0;;;
68446;BMP280;35789;48.414;12.768;2022-11-14T20:05:00;97130.0;;;
68446;BMP280;35789;48.414;12.768;2022-11-14T20:10:00;97140.0;;;
68446;BMP280;35789;48.414;12.768;2022-11-14T20:15:00;97140.0;;;
68446;BMP280;35789;48.414;12.768;2022-11-14T20:20:00;97140.0;;;
68446;BMP280;35789;48.414;12.768;2022-11-14T20:25:00;97140.0;;;
68446;BMP280;35789;48.414;12.768;2022-11-14T20:30:01;97140.0;;;
68446;BMP280;35789;48.414;12.768;2022-11-14T20:35:00;97140.0;;;
68446;BMP280;35789;48.414;12.768;2022-11-14T20:40:00;97140.0;;;
68446;BMP280;35789;48.414;12.768;2022-11-14T20:45:00;97140.0;;;
68446;BMP280;35789;48.414;12.768;2022-11-14T20:50:00;97140.0;;;
68446;BMP280;35789;48.414;12.768;2022-11-14T20:55:00;97150.0;;;
68446;BMP280;35789;48.414;12.768;2022-11-14T21:00:00;97150.0;;;
68446;BMP280;35789;48.414;12.768;2022-11-14T21:05:00;97150.0;;;
68446;BMP280;35789;48.414;12.768;2022-11-14T21:10:00;97150.0;;;
68446;BMP280;35789;48.414;12.768;2022-11-14T21:15:00;97150.0;;;
68446;BMP280;35789;48.414;12.768;2022-11-14T21:20:00;97150.0;;;
68446;BMP280;35789;48.414;12.768;2022-11-14T21:25:00;97150.0;;;
68446;BMP280;35789;48.414;12.768;2022-11-14T21:30:00;97140.0;;;
68446;BMP280;35789;48.414;12.768;2022-11-14T21:35:00;97130.0;;;
68446;BMP280;35789;48.414;12.768;2022-11-14T21:40:00;97130.0;;;
68446;BMP280;35789;48.414;12.768;2022-11-14T21:45:00;97110.0;;;
68446;BMP280;35789;48.414;12.768;2022-11-14T21:50:00;97110.0;;;
68446;BMP280;35789;48.414;12.768;2022-11-14T21:55:00;97110.0;;;
68446;BMP280;35789;48.414;12.768;2022-11-14T22:00:00;97110.0;;;
68446;BMP280;35789;48.414;12.768;2022-11-14T22:05:00;97110.0;;;
68446;BMP280;35789;48.414;12.768;2022-11-14T22:10:00;97110.0;;;
68446;BMP280;35789;48.414;12.768;2022-11-14T22:15:00;97110.0;;;
68446;BMP280;35789;48.414;12.768;2022-11-14T22:20:00;97110.0;;;
68446;BMP280;35789;48.414;12.768;2022-11-14T22:25:00;97110.0;;;
68446;BMP280;35789;48.414;12.768;2022-11-14T22:30:00;97110.0;;;
68446;BMP280;35789;48.414;12.768;2022-11-14T22:35:00;97110.0;;;
68446;BMP280;35789;48.414;12.768;2022-11-14T22:40:00;97110.0;;;
68446;BMP280;35789;48.414;12.768;2022-11-14T22:45:00;97100.0;;;
68446;BMP280;35789;48.414;12.768;2022-11-14T22:50:00;97100.0;;;
68446;BMP280;35789;48.414;12.768;2022-11-14T22:55:00;97110.0;;;
68446;BMP280;35789;48.414;12.768;2022-11-14T23:00:00;97100.0;;;
68446;BMP280;35789;48.414;12.768;2022-11-14T23:05:00;97100.0;;;
68446;BMP280;35789;48.414;12.768;2022-11-14T23:10:00;97100.0;;;
68446;BMP280;35789;48.414;12.768;2022-11-14T23:15:00;97100.0;;;
68446;BMP280;35789;48.414;12.768;2022-11-14T23:20:00;97100.0;;;
68446;BMP280;35789;48.414;12.768;2022-11-14T23:25:00;97090.0;;;
68446;BMP280;35789;48.414;12.768;2022-11-14T23:30:00;97090.0;;;
68446;BMP280;35789;48.414;12.768;2022-11-14T23:35:00;97090.0;;;
68446;BMP280;35789;48.414;12.768;2022-11-14T23:40:00;97080.0;;;
68446;BMP280;35789;48.414;12.768;2022-11-14T23:45:00;97080.0;;;
68446;BMP280;35789;48.414;12.768;2022-11-14T23:50:00;97090.0;;;
68446;BMP280;35789;48.414;12.768;2022-11-14T23:55:00;97080.0;;;
